Domov               UVHVVR             MKGP            O straneh              
ZDRAVSTVENO VARSTVO RASTLIN
  MREŽA AGROMET. POSTAJ
 ► PROGNOSTIČNA OBVESTILA
AGROMETEOROLOŠKI PODATKI -
ARSO
OBVLADOVANJE TVEGANJ ZARADI
NEUGODNIH VREMENSKIH RAZMER
  ► NARAVNE NESREČE
  ► SUŠA/MOČA
  ► NAMAKANJE
  ► ŽLED (gozdarstvo)
KARTOGRAFSKI PRIKAZI
SPLETNE POVEZAVE
PROJEKTI IN PUBLIKACIJE

AGROMETEOROLOŠKA MREŽA: VREMENSKE POSTAJE IN FENOLOŠKA OPAZOVANJA

Pregled podatkov za lokacijo Bizeljsko, meteorološka postaja 38541

Pregled senzorjev na lokaciji

ID Ime Zadnja
vrednost
Datum
zadnje
spremembe
Tip
senzorja
2027 Temperatura 2 m ( °C) 28,28 °C 28.6.2017 17:00 50YA
2028 Relativna vlaga 2 m (% RH) 49,55 % RH 28.6.2017 17:00 50YA
2029 Omočenost lista (U) 0 U 28.6.2017 17:00 A730WET
2030 Padavine 0.2 mm (mm) 0 mm 28.6.2017 17:00 Rain-O-Matic

Pregled podatkov zadnjih 24 ur

Zap.
št.
Datum in čas Bizeljsko
Omočenost
lista
Padavine
0.2
mm
Relativna
vlaga
2
m
Temperatura
2
m
0 28.6.2017 16:00 0 0 49,55 28,28
1 28.6.2017 15:30 0 0 55,63 25,93
2 28.6.2017 15:00 0 0 49,33 27,69
3 28.6.2017 14:30 0 0 45,35 29,18
4 28.6.2017 14:00 0 0 39,83 30,04
5 28.6.2017 13:30 0 0 43,1 29,6
6 28.6.2017 13:00 0 0 44,71 30,4
7 28.6.2017 12:30 0 0 48,96 29,13
8 28.6.2017 12:00 0 0 46,42 29,74
9 28.6.2017 11:30 0 0 47,67 29,87
10 28.6.2017 11:00 0 0 49,65 29,28
11 28.6.2017 10:30 0 0 50,62 28,79
12 28.6.2017 10:00 0 0 50,84 28,72
13 28.6.2017 09:30 0 0 53,63 28,21
14 28.6.2017 09:00 0 0 57,07 27,5
15 28.6.2017 08:30 0 0 60,07 26,52
16 28.6.2017 08:00 0 0 62,15 25,71
17 28.6.2017 07:30 0 0 65,05 24,57
18 28.6.2017 07:00 0 0 68,55 23,17
19 28.6.2017 06:30 0 0 71,92 21,88
20 28.6.2017 06:00 6 0 81,64 19,27
21 28.6.2017 05:30 9 0 85,37 18,14
22 28.6.2017 05:00 10 0 85,23 17,63
23 28.6.2017 04:30 10 0 83,35 17,88
24 28.6.2017 04:00 10 0 82 18,1
25 28.6.2017 03:30 10 0 83,25 17,68
26 28.6.2017 03:00 9 0 82,86 17,75
27 28.6.2017 02:30 8 0 79,41 18,34
28 28.6.2017 02:00 7 0 79,46 18,27
29 28.6.2017 01:30 5 0 78,66 18,53
30 28.6.2017 01:00 2 0 72,58 19,46
31 28.6.2017 00:30 1 0 68,35 20,27
32 28.6.2017 00:00 0 0 62,15 21,37
33 27.6.2017 23:30 0 0 61,37 21,88
34 27.6.2017 23:00 0 0 63,15 21,86
35 27.6.2017 22:30 1 0 67,42 21,73
36 27.6.2017 22:00 1 0 67,72 21,73
37 27.6.2017 21:30 1 0 67,94 21,68
38 27.6.2017 21:00 1 0 66,98 21,95
39 27.6.2017 20:30 0 0 65,2 22,1
40 27.6.2017 20:00 1 0 67,11 21,73
41 27.6.2017 19:30 1 0 70,72 21,1
42 27.6.2017 19:00 1 0 72,14 22,25
43 27.6.2017 18:30 0 0 62,39 24,98
44 27.6.2017 18:00 0 0 62,56 24,86
© 2011 Ministrstvo za kmetijstvo, gozdarstvo in prehrano. Vse pravice pridržane.